Time;durP1;ratioP1;P1;durP2;ratioP2;P2;SDS_P1;SDS_P2;PMS_P1;PMS_P2;Temp;Humidity;BMP_temperature;BMP_pressure;BME280_temperature;BME280_humidity;BME280_pressure;Samples;Min_cycle;Max_cycle;Signal;HPM_P1;HPM_P2
2021/12/16 06:01:53;;;;;;;1999.90;999.90;;;;;;;;;;5551614;23;20260;-70
2021/12/16 06:04:38;;;;;;;1999.90;999.90;;;;;;;;;;5012098;28;20210;-70
2021/12/16 06:07:23;;;;;;;1999.90;999.90;;;;;;;;;;5012868;28;20221;-70
2021/12/16 06:10:10;;;;;;;1999.90;999.90;;;;;;;;;;5020757;28;20212;-69
2021/12/16 06:12:55;;;;;;;1999.90;999.90;;;;;;;;;;4994868;28;20279;-71
2021/12/16 06:15:57;;;;;;;1999.90;999.90;;;;;;;;;;5004503;28;20580;-71
2021/12/16 06:27:53;;;;;;;1999.90;999.90;;;;;;;;;;5008818;28;20198;-70
2021/12/16 06:30:40;;;;;;;1999.90;999.90;;;;;;;;;;5010456;28;20234;-70
2021/12/16 06:33:26;;;;;;;1999.90;999.90;;;;;;;;;;4984046;28;20541;-69
2021/12/16 06:36:12;;;;;;;1999.90;999.90;;;;;;;;;;4990134;28;20632;-70
2021/12/16 06:38:58;;;;;;;1999.90;999.90;;;;;;;;;;4991298;28;20207;-71
2021/12/16 06:41:43;;;;;;;1999.90;999.90;;;;;;;;;;4991130;28;20231;-71
2021/12/16 06:44:32;;;;;;;1999.90;999.90;;;;;;;;;;4991392;28;20214;-70
2021/12/16 06:47:21;;;;;;;1999.90;999.90;;;;;;;;;;4989093;28;20311;-70
2021/12/16 06:50:07;;;;;;;1999.90;999.90;;;;;;;;;;4994488;28;20207;-70
2021/12/16 06:52:57;;;;;;;1999.90;999.90;;;;;;;;;;4989837;28;20212;-71
2021/12/16 06:55:46;;;;;;;1999.90;999.90;;;;;;;;;;4992436;28;20207;-70
2021/12/16 06:58:36;;;;;;;1999.90;999.90;;;;;;;;;;4990673;28;20412;-71
2021/12/16 07:01:36;;;;;;;1999.90;999.90;;;;;;;;;;4992260;28;20359;-70
2021/12/16 07:04:21;;;;;;;1999.90;999.90;;;;;;;;;;4992364;28;20207;-70
2021/12/16 07:07:07;;;;;;;1999.90;999.90;;;;;;;;;;4992369;28;20328;-70
2021/12/16 07:09:54;;;;;;;1999.90;999.90;;;;;;;;;;4992105;28;20279;-70
2021/12/16 07:12:46;;;;;;;1999.90;999.90;;;;;;;;;;4992067;28;20597;-71
2021/12/16 07:15:31;;;;;;;1999.90;999.90;;;;;;;;;;4995174;28;20196;-70
2021/12/16 07:18:16;;;;;;;1999.90;999.90;;;;;;;;;;4995913;28;20298;-70
2021/12/16 07:21:01;;;;;;;1999.90;999.90;;;;;;;;;;4996146;28;20234;-70
2021/12/16 07:23:46;;;;;;;1999.90;999.90;;;;;;;;;;4995785;28;20756;-72
2021/12/16 07:26:32;;;;;;;1999.90;999.90;;;;;;;;;;4996116;28;20207;-70
2021/12/16 07:29:17;;;;;;;1999.90;999.90;;;;;;;;;;4995754;28;20701;-69
2021/12/16 07:32:02;;;;;;;1999.90;999.90;;;;;;;;;;4995537;28;20230;-70
2021/12/16 07:34:47;;;;;;;1999.90;999.90;;;;;;;;;;4995877;28;20693;-70
2021/12/16 07:37:32;;;;;;;1999.90;999.90;;;;;;;;;;4995882;28;20278;-70
2021/12/16 07:40:20;;;;;;;1999.90;999.90;;;;;;;;;;4995818;28;20203;-70
2021/12/16 07:43:25;;;;;;;1999.90;999.90;;;;;;;;;;4994921;28;20453;-70
2021/12/16 07:46:11;;;;;;;1999.90;999.90;;;;;;;;;;4995482;28;20211;-69
2021/12/16 07:48:56;;;;;;;1999.90;999.90;;;;;;;;;;4995294;28;20211;-70
2021/12/16 07:51:41;;;;;;;1999.90;999.90;;;;;;;;;;4995636;28;20354;-70
2021/12/16 07:54:27;;;;;;;1999.90;999.90;;;;;;;;;;4995330;28;20409;-71
2021/12/16 07:57:12;;;;;;;1999.90;999.90;;;;;;;;;;4995417;28;20227;-70
2021/12/16 07:59:59;;;;;;;1999.90;999.90;;;;;;;;;;4995235;28;20295;-70
2021/12/16 08:02:45;;;;;;;1999.90;999.90;;;;;;;;;;4992263;28;20234;-68
2021/12/16 08:05:32;;;;;;;1999.90;999.90;;;;;;;;;;4998380;28;20207;-70
2021/12/16 08:08:17;;;;;;;1999.90;999.90;;;;;;;;;;4998057;28;20693;-70
2021/12/16 08:11:03;;;;;;;1999.90;999.90;;;;;;;;;;4994644;28;20223;-71
2021/12/16 08:13:48;;;;;;;1999.90;999.90;;;;;;;;;;4994071;28;20215;-70
2021/12/16 08:16:35;;;;;;;1999.90;999.90;;;;;;;;;;4994701;28;20213;-71
2021/12/16 08:19:21;;;;;;;1999.90;999.90;;;;;;;;;;4995421;28;20203;-72
2021/12/16 08:22:07;;;;;;;1999.90;999.90;;;;;;;;;;4988023;28;20436;-71
2021/12/16 08:24:52;;;;;;;1999.90;999.90;;;;;;;;;;4999690;28;20476;-71
2021/12/16 08:27:39;;;;;;;1999.90;999.90;;;;;;;;;;4990404;28;20219;-69
2021/12/16 08:30:26;;;;;;;1999.90;999.90;;;;;;;;;;4996757;28;20294;-72
2021/12/16 08:33:14;;;;;;;1999.90;999.90;;;;;;;;;;4985787;28;20204;-72
2021/12/16 08:35:59;;;;;;;1999.90;999.90;;;;;;;;;;4993551;28;20292;-70
2021/12/16 08:38:44;;;;;;;1999.90;999.90;;;;;;;;;;4994964;28;20353;-72
2021/12/16 08:41:31;;;;;;;1999.90;999.90;;;;;;;;;;4981746;28;20785;-70
2021/12/16 08:44:16;;;;;;;1999.90;999.90;;;;;;;;;;5000513;28;20712;-71
2021/12/16 08:47:04;;;;;;;1999.90;999.90;;;;;;;;;;4992607;28;20207;-70
2021/12/16 08:49:50;;;;;;;1999.90;999.90;;;;;;;;;;4987457;28;20214;-70
2021/12/16 08:52:36;;;;;;;1999.90;999.90;;;;;;;;;;4985075;28;20737;-70
2021/12/16 08:55:21;;;;;;;1999.90;999.90;;;;;;;;;;5008591;28;20270;-71
2021/12/16 08:58:06;;;;;;;1999.90;999.90;;;;;;;;;;4987516;28;20693;-70
2021/12/16 09:00:53;;;;;;;1999.90;999.90;;;;;;;;;;4985474;28;20777;-70
2021/12/16 09:03:38;;;;;;;1999.90;999.90;;;;;;;;;;4988293;28;20219;-70
2021/12/16 09:06:24;;;;;;;1999.90;999.90;;;;;;;;;;4984846;28;20235;-70
2021/12/16 09:09:10;;;;;;;1999.90;999.90;;;;;;;;;;4992285;28;20215;-70
2021/12/16 09:12:06;;;;;;;1999.90;999.90;;;;;;;;;;4990139;28;20221;-70
2021/12/16 09:14:51;;;;;;;1999.90;999.90;;;;;;;;;;4993874;28;20275;-70
2021/12/16 09:17:36;;;;;;;1999.90;999.90;;;;;;;;;;4996325;28;20772;-70
2021/12/16 09:20:22;;;;;;;1999.90;999.90;;;;;;;;;;4991406;28;20258;-70
2021/12/16 09:23:10;;;;;;;1999.90;999.90;;;;;;;;;;5000902;28;20616;-70
2021/12/16 09:25:55;;;;;;;1999.90;999.90;;;;;;;;;;4986358;28;20214;-71
2021/12/16 09:28:41;;;;;;;1999.90;999.90;;;;;;;;;;4986094;28;20222;-70
2021/12/16 09:31:27;;;;;;;1999.90;999.90;;;;;;;;;;4983787;28;20404;-71
2021/12/16 09:34:12;;;;;;;1999.90;999.90;;;;;;;;;;4987965;28;20282;-70
2021/12/16 09:36:57;;;;;;;1999.90;999.90;;;;;;;;;;4985218;28;20215;-71
2021/12/16 09:39:44;;;;;;;1999.90;999.90;;;;;;;;;;4979545;28;20609;-71
2021/12/16 09:42:30;;;;;;;1999.90;999.90;;;;;;;;;;4994066;28;20441;-72
2021/12/16 09:45:15;;;;;;;1999.90;999.90;;;;;;;;;;5004191;28;20215;-71
2021/12/16 09:48:00;;;;;;;1999.90;999.90;;;;;;;;;;4994858;28;20569;-72
2021/12/16 09:50:45;;;;;;;1999.90;999.90;;;;;;;;;;4996019;28;20306;-72
2021/12/16 09:53:30;;;;;;;1999.90;999.90;;;;;;;;;;4987313;28;20211;-72
2021/12/16 09:56:17;;;;;;;1999.90;999.90;;;;;;;;;;4986213;28;20223;-71
2021/12/16 09:59:03;;;;;;;1999.90;999.90;;;;;;;;;;5006703;28;20215;-71
2021/12/16 10:01:50;;;;;;;1999.90;999.90;;;;;;;;;;5001258;28;20239;-72
2021/12/16 10:04:35;;;;;;;1999.90;999.90;;;;;;;;;;4988610;28;20228;-73
2021/12/16 10:07:22;;;;;;;1999.90;999.90;;;;;;;;;;4988745;28;20576;-73
2021/12/16 10:10:10;;;;;;;1999.90;999.90;;;;;;;;;;4987951;28;20701;-72
2021/12/16 10:13:00;;;;;;;1999.90;999.90;;;;;;;;;;4987793;28;20363;-71
2021/12/16 10:18:48;;;;;;;1999.90;999.90;;;;;;;;;;4989094;28;20221;-71
2021/12/16 10:21:33;;;;;;;1999.90;999.90;;;;;;;;;;5000355;28;20725;-71
2021/12/16 10:24:23;;;;;;;1999.90;999.90;;;;;;;;;;4987261;28;20290;-72
2021/12/16 10:27:09;;;;;;;1999.90;999.90;;;;;;;;;;4987742;28;20211;-72
2021/12/16 10:29:56;;;;;;;1999.90;999.90;;;;;;;;;;4981681;28;20327;-72
2021/12/16 10:32:42;;;;;;;1999.90;999.90;;;;;;;;;;4980458;28;20234;-72
2021/12/16 10:35:29;;;;;;;1999.90;999.90;;;;;;;;;;4982172;28;20219;-72
2021/12/16 10:38:15;;;;;;;1999.90;999.90;;;;;;;;;;5002188;28;20536;-73
2021/12/16 10:41:00;;;;;;;1999.90;999.90;;;;;;;;;;4985441;28;20310;-72
2021/12/16 10:43:49;;;;;;;1999.90;999.90;;;;;;;;;;4989013;28;20230;-73
2021/12/16 10:46:37;;;;;;;1999.90;999.90;;;;;;;;;;4989780;28;20703;-73
2021/12/16 10:49:25;;;;;;;1999.90;999.90;;;;;;;;;;4982409;28;20304;-73
2021/12/16 10:52:11;;;;;;;1999.90;999.90;;;;;;;;;;5008315;28;20234;-72
2021/12/16 10:54:57;;;;;;;1999.90;999.90;;;;;;;;;;4985466;28;21006;-71
2021/12/16 10:57:41;;;;;;;1999.90;999.90;;;;;;;;;;4990034;28;20695;-72
2021/12/16 11:00:27;;;;;;;1999.90;999.90;;;;;;;;;;5003978;28;20269;-72
2021/12/16 11:03:34;;;;;;;1999.90;999.90;;;;;;;;;;4989835;28;20712;-72
2021/12/16 11:06:28;;;;;;;1999.90;999.90;;;;;;;;;;4999138;28;20588;-71
2021/12/16 11:09:31;;;;;;;1999.90;999.90;;;;;;;;;;4994501;28;20282;-72
2021/12/16 11:12:22;;;;;;;1999.90;999.90;;;;;;;;;;4998759;28;20238;-71
2021/12/16 11:15:18;;;;;;;1999.90;999.90;;;;;;;;;;4988332;28;20204;-72
2021/12/16 11:18:05;;;;;;;1999.90;999.90;;;;;;;;;;4987757;28;20699;-71
2021/12/16 11:20:52;;;;;;;1999.90;999.90;;;;;;;;;;4983710;28;20233;-71
2021/12/16 11:23:40;;;;;;;1999.90;999.90;;;;;;;;;;4992155;28;20220;-71
2021/12/16 11:26:28;;;;;;;1999.90;999.90;;;;;;;;;;5000598;28;20214;-71
2021/12/16 11:29:13;;;;;;;1999.90;999.90;;;;;;;;;;4996613;28;20207;-72
2021/12/16 11:31:58;;;;;;;1999.90;999.90;;;;;;;;;;4996724;28;20238;-70
2021/12/16 11:34:43;;;;;;;1999.90;999.90;;;;;;;;;;4983369;28;20207;-71
2021/12/16 11:37:29;;;;;;;1999.90;999.90;;;;;;;;;;4993318;28;20206;-71
2021/12/16 11:40:15;;;;;;;1999.90;999.90;;;;;;;;;;4987408;28;20215;-71
2021/12/16 11:43:01;;;;;;;1999.90;999.90;;;;;;;;;;4988335;28;20681;-72
2021/12/16 11:45:50;;;;;;;1999.90;999.90;;;;;;;;;;4991964;28;20215;-73
2021/12/16 11:48:37;;;;;;;1999.90;999.90;;;;;;;;;;4992457;28;20212;-71
2021/12/16 11:51:23;;;;;;;1999.90;999.90;;;;;;;;;;4990309;28;20255;-72
2021/12/16 11:54:15;;;;;;;1999.90;999.90;;;;;;;;;;4984715;28;20583;-72
2021/12/16 11:57:05;;;;;;;1999.90;999.90;;;;;;;;;;4984948;28;20211;-72
2021/12/16 11:59:52;;;;;;;1999.90;999.90;;;;;;;;;;4990774;28;20203;-71
2021/12/16 12:02:39;;;;;;;1999.90;999.90;;;;;;;;;;4997229;28;20303;-72
2021/12/16 12:05:26;;;;;;;1999.90;999.90;;;;;;;;;;5003053;28;20215;-72
2021/12/16 12:08:13;;;;;;;1999.90;999.90;;;;;;;;;;4997651;28;20458;-73
2021/12/16 12:11:02;;;;;;;1999.90;999.90;;;;;;;;;;4986442;28;20227;-72
2021/12/16 12:13:49;;;;;;;1999.90;999.90;;;;;;;;;;4983875;28;20220;-72
2021/12/16 12:16:35;;;;;;;1999.90;999.90;;;;;;;;;;5012036;28;20254;-70
2021/12/16 12:19:21;;;;;;;1999.90;999.90;;;;;;;;;;4993307;28;20797;-72
2021/12/16 12:22:06;;;;;;;1999.90;999.90;;;;;;;;;;4991691;28;20433;-71
2021/12/16 12:24:51;;;;;;;1999.90;999.90;;;;;;;;;;4988222;28;20227;-71
2021/12/16 12:27:38;;;;;;;1999.90;999.90;;;;;;;;;;4993508;28;20217;-73
2021/12/16 12:30:23;;;;;;;1999.90;999.90;;;;;;;;;;4996475;28;20315;-71
2021/12/16 12:33:08;;;;;;;1999.90;999.90;;;;;;;;;;4997031;28;20746;-71
2021/12/16 12:35:53;;;;;;;1999.90;999.90;;;;;;;;;;5003604;28;20208;-71
2021/12/16 12:38:38;;;;;;;1999.90;999.90;;;;;;;;;;4994199;28;20221;-71
2021/12/16 12:41:24;;;;;;;1999.90;999.90;;;;;;;;;;4989349;28;20235;-72
2021/12/16 12:44:10;;;;;;;1999.90;999.90;;;;;;;;;;4990929;28;20263;-73
2021/12/16 12:46:55;;;;;;;1999.90;999.90;;;;;;;;;;5002859;28;20319;-74
2021/12/16 12:49:40;;;;;;;1999.90;999.90;;;;;;;;;;5014345;28;20210;-73
2021/12/16 12:52:28;;;;;;;1999.90;999.90;;;;;;;;;;4999378;28;20815;-72
2021/12/16 12:55:14;;;;;;;1999.90;999.90;;;;;;;;;;4999405;28;20339;-72
2021/12/16 12:58:02;;;;;;;1999.90;999.90;;;;;;;;;;4986591;28;20777;-73
2021/12/16 13:00:50;;;;;;;1999.90;999.90;;;;;;;;;;4997512;28;20814;-72
2021/12/16 13:03:38;;;;;;;1999.90;999.90;;;;;;;;;;4985765;28;20208;-72
2021/12/16 13:06:26;;;;;;;1999.90;999.90;;;;;;;;;;4995977;28;20215;-73
2021/12/16 13:09:22;;;;;;;1999.90;999.90;;;;;;;;;;4994982;28;20339;-73
2021/12/16 13:12:32;;;;;;;1999.90;999.90;;;;;;;;;;4990694;28;20251;-72
2021/12/16 13:15:32;;;;;;;1999.90;999.90;;;;;;;;;;4993309;28;20351;-74
2021/12/16 13:24:45;;;;;;;1999.90;999.90;;;;;;;;;;5008620;28;20214;-74
2021/12/16 13:27:36;;;;;;;1999.90;999.90;;;;;;;;;;4997748;28;20210;-74
2021/12/16 13:30:28;;;;;;;1999.90;999.90;;;;;;;;;;4992094;28;20288;-72
2021/12/16 13:33:20;;;;;;;1999.90;999.90;;;;;;;;;;5013438;28;20218;-71
2021/12/16 13:36:15;;;;;;;1999.90;999.90;;;;;;;;;;4974231;28;20212;-72
2021/12/16 13:39:08;;;;;;;1999.90;999.90;;;;;;;;;;4985409;28;20207;-72
2021/12/16 13:42:01;;;;;;;1999.90;999.90;;;;;;;;;;4994158;28;20352;-72
2021/12/16 13:44:52;;;;;;;1999.90;999.90;;;;;;;;;;4993776;28;20223;-70
2021/12/16 13:48:05;;;;;;;1999.90;999.90;;;;;;;;;;5001019;28;20416;-70
2021/12/16 14:03:43;;;;;;;1999.90;999.90;;;;;;;;;;4932032;29;20720;-71
2021/12/16 14:06:51;;;;;;;1999.90;999.90;;;;;;;;;;4933004;29;20295;-71
2021/12/16 14:09:38;;;;;;;1999.90;999.90;;;;;;;;;;4993018;28;20207;-72
2021/12/16 14:13:36;;;;;;;1999.90;999.90;;;;;;;;;;4992926;28;20235;-72
2021/12/16 14:15:56;;;;;;;1999.90;999.90;;;;;;;;;;4993242;28;20231;-72
2021/12/16 14:25:16;;;;;;;1999.90;999.90;;;;;;;;;;5006870;28;20733;-73
2021/12/16 14:31:20;;;;;;;1999.90;999.90;;;;;;;;;;5012268;28;20272;-73
2021/12/16 14:40:23;;;;;;;1999.90;999.90;;;;;;;;;;4972914;28;20722;-73
2021/12/16 14:43:18;;;;;;;1999.90;999.90;;;;;;;;;;4971892;28;20799;-70
2021/12/16 14:46:06;;;;;;;1999.90;999.90;;;;;;;;;;4972813;28;20256;-73
2021/12/16 14:48:51;;;;;;;1999.90;999.90;;;;;;;;;;4973014;28;20698;-73
2021/12/16 14:51:35;;;;;;;1999.90;999.90;;;;;;;;;;4973612;28;20252;-72
2021/12/16 14:54:20;;;;;;;1999.90;999.90;;;;;;;;;;4973071;28;20199;-73
2021/12/16 14:57:07;;;;;;;1999.90;999.90;;;;;;;;;;4972889;28;20207;-71
2021/12/16 14:59:52;;;;;;;1999.90;999.90;;;;;;;;;;4985607;28;20683;-74
2021/12/16 15:02:39;;;;;;;1999.90;999.90;;;;;;;;;;5000318;28;20245;-73
2021/12/16 15:05:26;;;;;;;1999.90;999.90;;;;;;;;;;4972718;28;20235;-74
2021/12/16 15:08:13;;;;;;;1999.90;999.90;;;;;;;;;;4994215;28;21027;-73
2021/12/16 15:10:59;;;;;;;1999.90;999.90;;;;;;;;;;4994149;28;20443;-73
2021/12/16 15:13:51;;;;;;;1999.90;999.90;;;;;;;;;;5002586;28;20210;-72
2021/12/16 15:16:50;;;;;;;1999.90;999.90;;;;;;;;;;5007093;28;20281;-72
2021/12/16 15:44:11;;;;;;;1999.90;999.90;;;;;;;;;;4995226;28;20274;-72
2021/12/16 15:46:56;;;;;;;1999.90;999.90;;;;;;;;;;4995937;28;20215;-72
2021/12/16 15:49:41;;;;;;;1999.90;999.90;;;;;;;;;;4995544;28;20206;-71
2021/12/16 15:52:26;;;;;;;1999.90;999.90;;;;;;;;;;4995607;28;20231;-73
2021/12/16 15:55:15;;;;;;;1999.90;999.90;;;;;;;;;;4995594;28;20199;-72
2021/12/16 15:58:01;;;;;;;1999.90;999.90;;;;;;;;;;4995359;28;20230;-71
2021/12/16 16:00:49;;;;;;;1999.90;999.90;;;;;;;;;;4995019;28;20226;-72
2021/12/16 16:03:36;;;;;;;1999.90;999.90;;;;;;;;;;4995395;28;20737;-73
2021/12/16 16:06:21;;;;;;;1999.90;999.90;;;;;;;;;;4993229;28;20307;-73
2021/12/16 16:09:10;;;;;;;1999.90;999.90;;;;;;;;;;4989036;28;20207;-71
2021/12/16 16:11:56;;;;;;;1999.90;999.90;;;;;;;;;;4991698;28;20234;-72
2021/12/16 16:14:44;;;;;;;1999.90;999.90;;;;;;;;;;4991063;28;20199;-73
2021/12/16 16:17:39;;;;;;;1999.90;999.90;;;;;;;;;;4995831;28;20688;-72
2021/12/16 16:20:28;;;;;;;1999.90;999.90;;;;;;;;;;4996824;28;20327;-72
2021/12/16 16:23:16;;;;;;;1999.90;999.90;;;;;;;;;;4998010;28;20215;-72
2021/12/16 16:26:03;;;;;;;1999.90;999.90;;;;;;;;;;4994570;28;20635;-73
2021/12/16 16:28:50;;;;;;;1999.90;999.90;;;;;;;;;;4992299;28;21011;-72
2021/12/16 16:31:36;;;;;;;1999.90;999.90;;;;;;;;;;4997767;28;20235;-73
2021/12/16 16:34:23;;;;;;;1999.90;999.90;;;;;;;;;;5018008;28;20584;-73
2021/12/16 16:37:09;;;;;;;1999.90;999.90;;;;;;;;;;5019961;28;20199;-75
2021/12/16 16:39:55;;;;;;;1999.90;999.90;;;;;;;;;;4978798;28;20255;-73
2021/12/16 16:42:42;;;;;;;1999.90;999.90;;;;;;;;;;4976349;28;20315;-74
2021/12/16 16:45:30;;;;;;;1999.90;999.90;;;;;;;;;;4975152;28;20219;-74
2021/12/16 16:48:27;;;;;;;1999.90;999.90;;;;;;;;;;4974128;28;20583;-74
2021/12/16 16:51:16;;;;;;;1999.90;999.90;;;;;;;;;;4977660;28;20769;-74
2021/12/16 16:54:04;;;;;;;1999.90;999.90;;;;;;;;;;5001097;28;20203;-75
2021/12/16 16:56:54;;;;;;;1999.90;999.90;;;;;;;;;;4986118;28;20713;-74
2021/12/16 16:59:41;;;;;;;1999.90;999.90;;;;;;;;;;4993900;28;20586;-74
2021/12/16 17:02:28;;;;;;;1999.90;999.90;;;;;;;;;;4992849;28;20243;-72
2021/12/16 17:05:14;;;;;;;1999.90;999.90;;;;;;;;;;4993135;28;20764;-71
2021/12/16 17:08:05;;;;;;;1999.90;999.90;;;;;;;;;;4997764;28;20725;-73
2021/12/16 17:10:51;;;;;;;1999.90;999.90;;;;;;;;;;4985102;28;20371;-74
2021/12/16 17:13:42;;;;;;;1999.90;999.90;;;;;;;;;;4984726;28;20211;-74
2021/12/16 17:19:33;;;;;;;1999.90;999.90;;;;;;;;;;4989892;28;20198;-73
2021/12/16 17:22:23;;;;;;;1999.90;999.90;;;;;;;;;;4984350;28;20352;-73
2021/12/16 17:25:10;;;;;;;1999.90;999.90;;;;;;;;;;4990085;28;20219;-74
2021/12/16 17:28:00;;;;;;;1999.90;999.90;;;;;;;;;;4991325;28;20348;-72
2021/12/16 17:30:46;;;;;;;1999.90;999.90;;;;;;;;;;4993748;28;20318;-74
2021/12/16 17:33:34;;;;;;;1999.90;999.90;;;;;;;;;;4994790;28;20254;-73
2021/12/16 17:36:22;;;;;;;1999.90;999.90;;;;;;;;;;4993615;28;20698;-73
2021/12/16 17:39:09;;;;;;;1999.90;999.90;;;;;;;;;;4991871;28;20208;-72
2021/12/16 17:41:57;;;;;;;1999.90;999.90;;;;;;;;;;4973985;28;20598;-73
2021/12/16 17:44:42;;;;;;;1999.90;999.90;;;;;;;;;;4973832;28;20332;-73
2021/12/16 17:47:29;;;;;;;1999.90;999.90;;;;;;;;;;4973788;28;20422;-74
2021/12/16 17:50:15;;;;;;;1999.90;999.90;;;;;;;;;;4973748;28;20791;-73
2021/12/16 17:53:01;;;;;;;1999.90;999.90;;;;;;;;;;4977778;28;20612;-73
2021/12/16 17:55:49;;;;;;;1999.90;999.90;;;;;;;;;;4993307;28;20582;-74
2021/12/16 17:58:36;;;;;;;1999.90;999.90;;;;;;;;;;4992224;28;20276;-74
2021/12/16 18:01:23;;;;;;;1999.90;999.90;;;;;;;;;;4992656;28;20239;-73
2021/12/16 18:04:09;;;;;;;1999.90;999.90;;;;;;;;;;4984393;28;20224;-72
2021/12/16 18:06:55;;;;;;;1999.90;999.90;;;;;;;;;;5006471;28;20249;-74
2021/12/16 18:09:42;;;;;;;1999.90;999.90;;;;;;;;;;5012030;28;20250;-73
2021/12/16 18:12:29;;;;;;;1999.90;999.90;;;;;;;;;;5012399;28;20599;-73
2021/12/16 18:15:18;;;;;;;1999.90;999.90;;;;;;;;;;4996785;28;20214;-74
2021/12/16 18:18:07;;;;;;;1999.90;999.90;;;;;;;;;;4986308;28;20515;-73
2021/12/16 18:20:53;;;;;;;1999.90;999.90;;;;;;;;;;4985073;28;20593;-74
2021/12/16 18:23:38;;;;;;;1999.90;999.90;;;;;;;;;;4987971;28;20260;-73
2021/12/16 18:26:28;;;;;;;1999.90;999.90;;;;;;;;;;4993265;28;20227;-74
2021/12/16 18:29:14;;;;;;;1999.90;999.90;;;;;;;;;;4985913;28;20806;-74
2021/12/16 18:32:00;;;;;;;1999.90;999.90;;;;;;;;;;4982144;28;20291;-74
2021/12/16 18:34:50;;;;;;;1999.90;999.90;;;;;;;;;;4996513;28;20214;-74
2021/12/16 18:37:35;;;;;;;1999.90;999.90;;;;;;;;;;5002602;28;20342;-73
2021/12/16 18:40:23;;;;;;;1999.90;999.90;;;;;;;;;;4985946;28;20725;-73
2021/12/16 18:43:09;;;;;;;1999.90;999.90;;;;;;;;;;4987606;28;20432;-73
2021/12/16 18:45:57;;;;;;;1999.90;999.90;;;;;;;;;;4990831;28;20724;-73
2021/12/16 18:48:45;;;;;;;1999.90;999.90;;;;;;;;;;4984494;28;20211;-74
2021/12/16 18:51:44;;;;;;;1999.90;999.90;;;;;;;;;;4989212;28;20392;-73
2021/12/16 18:54:30;;;;;;;1999.90;999.90;;;;;;;;;;4989927;28;20215;-73
2021/12/16 18:57:16;;;;;;;1999.90;999.90;;;;;;;;;;4998879;28;20571;-74
2021/12/16 19:00:02;;;;;;;1999.90;999.90;;;;;;;;;;4998128;28;20578;-72
2021/12/16 19:02:47;;;;;;;1999.90;999.90;;;;;;;;;;5002008;28;20214;-74
2021/12/16 19:05:33;;;;;;;1999.90;999.90;;;;;;;;;;4990652;28;20218;-73
2021/12/16 19:08:18;;;;;;;1999.90;999.90;;;;;;;;;;4982402;28;20215;-73
2021/12/16 19:11:04;;;;;;;1999.90;999.90;;;;;;;;;;5002372;28;20227;-73
2021/12/16 19:13:50;;;;;;;1999.90;999.90;;;;;;;;;;4992092;28;20253;-73
2021/12/16 19:16:34;;;;;;;1999.90;999.90;;;;;;;;;;4996187;28;20583;-73
2021/12/16 19:19:19;;;;;;;1999.90;999.90;;;;;;;;;;4988374;28;20706;-73
2021/12/16 19:22:07;;;;;;;1999.90;999.90;;;;;;;;;;4999527;28;20321;-74
2021/12/16 19:24:52;;;;;;;1999.90;999.90;;;;;;;;;;4989805;28;20211;-73
2021/12/16 19:27:38;;;;;;;1999.90;999.90;;;;;;;;;;4995809;28;20208;-73
2021/12/16 19:30:24;;;;;;;1999.90;999.90;;;;;;;;;;4995848;28;20203;-73
2021/12/16 19:33:10;;;;;;;1999.90;999.90;;;;;;;;;;4976420;28;20211;-72
2021/12/16 19:35:55;;;;;;;1999.90;999.90;;;;;;;;;;4976414;28;20317;-73
2021/12/16 19:38:42;;;;;;;1999.90;999.90;;;;;;;;;;4986912;28;20291;-74
2021/12/16 19:41:30;;;;;;;1999.90;999.90;;;;;;;;;;4995568;28;20318;-73
2021/12/16 19:44:17;;;;;;;1999.90;999.90;;;;;;;;;;4995966;28;20207;-73
2021/12/16 19:47:02;;;;;;;1999.90;999.90;;;;;;;;;;4993301;28;20235;-73
2021/12/16 19:49:47;;;;;;;1999.90;999.90;;;;;;;;;;4997528;28;20298;-72
2021/12/16 19:52:32;;;;;;;1999.90;999.90;;;;;;;;;;5005127;28;20227;-73
2021/12/16 19:55:19;;;;;;;1999.90;999.90;;;;;;;;;;5015293;28;20225;-73
2021/12/16 19:58:06;;;;;;;1999.90;999.90;;;;;;;;;;5014617;28;20206;-73
2021/12/16 20:00:53;;;;;;;1999.90;999.90;;;;;;;;;;5005007;28;20243;-74
2021/12/16 20:03:40;;;;;;;1999.90;999.90;;;;;;;;;;4995370;28;20797;-75
2021/12/16 20:06:27;;;;;;;1999.90;999.90;;;;;;;;;;4996706;28;20461;-74
2021/12/16 20:09:16;;;;;;;1999.90;999.90;;;;;;;;;;4989275;28;20723;-74
2021/12/16 20:12:05;;;;;;;1999.90;999.90;;;;;;;;;;4999285;28;20734;-73
2021/12/16 20:14:51;;;;;;;1999.90;999.90;;;;;;;;;;4992668;28;20467;-73
2021/12/16 20:17:37;;;;;;;1999.90;999.90;;;;;;;;;;4990677;28;20227;-72
2021/12/16 20:20:23;;;;;;;1999.90;999.90;;;;;;;;;;4993853;28;20678;-72
2021/12/16 20:23:10;;;;;;;1999.90;999.90;;;;;;;;;;4993302;28;20721;-72
2021/12/16 20:25:57;;;;;;;1999.90;999.90;;;;;;;;;;4989226;28;20826;-72
2021/12/16 20:28:46;;;;;;;1999.90;999.90;;;;;;;;;;4975028;28;20423;-73
2021/12/16 20:31:34;;;;;;;1999.90;999.90;;;;;;;;;;4989147;28;20588;-73
2021/12/16 20:34:22;;;;;;;1999.90;999.90;;;;;;;;;;5000983;28;20292;-73
2021/12/16 20:37:10;;;;;;;1999.90;999.90;;;;;;;;;;5014586;28;20210;-73
2021/12/16 20:39:56;;;;;;;1999.90;999.90;;;;;;;;;;4974943;28;20208;-73
2021/12/16 20:42:43;;;;;;;1999.90;999.90;;;;;;;;;;4985099;28;20235;-73
2021/12/16 20:45:44;;;;;;;1999.90;999.90;;;;;;;;;;5012705;28;20740;-72
2021/12/16 20:48:31;;;;;;;1999.90;999.90;;;;;;;;;;5014188;28;20330;-73
2021/12/16 20:51:18;;;;;;;1999.90;999.90;;;;;;;;;;5014008;28;20775;-72
2021/12/16 20:54:04;;;;;;;1999.90;999.90;;;;;;;;;;5014173;28;20213;-74
2021/12/16 20:56:51;;;;;;;1999.90;999.90;;;;;;;;;;4990846;28;20199;-73
2021/12/16 20:59:36;;;;;;;1999.90;999.90;;;;;;;;;;5013382;28;20210;-73
2021/12/16 21:02:25;;;;;;;1999.90;999.90;;;;;;;;;;4987332;28;20238;-73
2021/12/16 21:05:13;;;;;;;1999.90;999.90;;;;;;;;;;5014120;28;20206;-73
2021/12/16 21:07:58;;;;;;;1999.90;999.90;;;;;;;;;;5003870;28;20227;-74
2021/12/16 21:10:44;;;;;;;1999.90;999.90;;;;;;;;;;5006316;28;20343;-74
2021/12/16 21:13:30;;;;;;;1999.90;999.90;;;;;;;;;;4998184;28;20220;-73
2021/12/16 21:16:15;;;;;;;1999.90;999.90;;;;;;;;;;4992905;28;20528;-73
2021/12/16 21:19:02;;;;;;;1999.90;999.90;;;;;;;;;;4988621;28;20302;-72
2021/12/16 21:21:47;;;;;;;1999.90;999.90;;;;;;;;;;4999803;28;20694;-73
2021/12/16 21:24:33;;;;;;;1999.90;999.90;;;;;;;;;;5013762;28;20205;-73
2021/12/16 21:27:18;;;;;;;1999.90;999.90;;;;;;;;;;5013371;28;20230;-73
2021/12/16 21:30:06;;;;;;;1999.90;999.90;;;;;;;;;;5013362;28;20214;-73
2021/12/16 21:32:53;;;;;;;1999.90;999.90;;;;;;;;;;5004003;28;20277;-74
2021/12/16 21:35:44;;;;;;;1999.90;999.90;;;;;;;;;;4985882;28;20211;-72
2021/12/16 21:38:30;;;;;;;1999.90;999.90;;;;;;;;;;4993237;28;20799;-73
2021/12/16 21:41:17;;;;;;;1999.90;999.90;;;;;;;;;;4993460;28;20612;-74
2021/12/16 21:44:03;;;;;;;1999.90;999.90;;;;;;;;;;4993537;28;20211;-74
2021/12/16 21:46:48;;;;;;;1999.90;999.90;;;;;;;;;;4978902;28;20310;-73
2021/12/16 21:49:33;;;;;;;1999.90;999.90;;;;;;;;;;4993308;28;20219;-73
2021/12/16 21:52:19;;;;;;;1999.90;999.90;;;;;;;;;;4997249;28;20306;-74
2021/12/16 21:55:06;;;;;;;1999.90;999.90;;;;;;;;;;4990090;28;20568;-74
2021/12/16 21:57:52;;;;;;;1999.90;999.90;;;;;;;;;;4987303;28;20212;-73
